Weather History for KOOA - September, 2013

Change the Weather History Date:

Tuesday, September 17, 2013

  Actual Average (KOTM) Record (KOTM)
Temperature  
Mean Temperature 56 °F 64 °F  
Max Temperature 62 °F 76 °F 98 °F (1927)
Min Temperature 50 °F 52 °F 34 °F (1937)
Degree Days  
Heating Degree Days 9 4  
Month to date heating degree days 34  
Since 1 July heating degree days 45  
Cooling Degree Days 0 3  
Month to date cooling degree days 72  
Year to date cooling degree days 906  
Growing Degree Days 6 (Base 50)    
Moisture  
Dew Point 53 °F    
Average Humidity 87    
Maximum Humidity 93    
Minimum Humidity 78    
Precipitation  
Precipitation 0.01 in 0.12 in 2.05 in (1978)
Month to date precipitation 2.26  
Year to date precipitation 28.96  
Sea Level Pressure  
Sea Level Pressure 30.16 in    
Wind  
Wind Speed 8 mph (SE)    
Max Wind Speed 12 mph    
Max Gust Speed 16 mph    
Visibility 8 miles    
Events Rain    
T = Trace of Precipitation, MM = Missing Value Source: NWS Daily Summary

Daily Weather History Graph

Daily Weather History Graph

Search for Another Location

Airport or City:

Trip Planner

Search our weather history database for the weather conditions in past years. The results will help you decide how hot, cold, wet, or windy it might be!

Date:

Astronomy

Sep. 17, 2013 Rise Set
Actual Time 6:52 AM CDT 7:15 PM CDT
Civil Twilight 6:25 AM CDT 7:42 PM CDT
Nautical Twilight 5:52 AM CDT 8:15 PM CDT
Astronomical Twilight 5:19 AM CDT 8:48 PM CDT
Moon 6:03 PM CDT (9/17) 4:47 AM CDT (9/17)
Length of Visible Light 13h 17m
Length of Day
12h 22m
Waxing Gibbous, 96% of the Moon is Illuminated
Sep 17
Waxing Gibbous
Sep 19
Full
Sep 26
Last Quarter
Oct 4
New
Oct 11
First Quarter

Hourly Weather History & Observations

Time (CDT) Temp. Dew Point Humidity Pressure Visibility Wind Dir Wind Speed Gust Speed Precip Events Conditions
12:15 AM 50.9 °F 48.4 °F 91% 30.27 in 10.0 mi East 5.8 mph - N/A   Clear
12:35 AM 52.0 °F 48.4 °F 88% 30.27 in 10.0 mi East 5.8 mph - N/A   Clear
12:55 AM 52.0 °F 48.2 °F 87% 30.27 in 10.0 mi ESE 5.8 mph - N/A   Clear
1:15 AM 51.8 °F 48.0 °F 87% 30.27 in 10.0 mi ESE 5.8 mph - N/A   Scattered Clouds
1:35 AM 51.8 °F 47.8 °F 86% 30.27 in 10.0 mi ESE 6.9 mph - N/A   Scattered Clouds
1:55 AM 52.0 °F 48.0 °F 86% 30.27 in 10.0 mi ESE 8.1 mph - N/A   Clear
2:15 AM 52.0 °F 47.8 °F 86% 30.26 in 10.0 mi ESE 8.1 mph - N/A   Clear
2:35 AM 52.0 °F 47.8 °F 86% 30.26 in 10.0 mi ESE 8.1 mph - N/A   Clear
2:55 AM 52.0 °F 47.8 °F 86% 30.26 in 10.0 mi ESE 9.2 mph - N/A   Clear
3:15 AM 52.0 °F 48.0 °F 86% 30.25 in 10.0 mi ESE 8.1 mph - N/A   Clear
3:35 AM 51.8 °F 47.8 °F 86% 30.25 in 10.0 mi ESE 8.1 mph - N/A   Clear
3:55 AM 51.4 °F 47.8 °F 87% 30.25 in 10.0 mi ESE 6.9 mph - N/A   Clear
4:15 AM 51.4 °F 47.8 °F 87% 30.24 in 10.0 mi ESE 8.1 mph - N/A   Clear
4:35 AM 51.4 °F 47.8 °F 87% 30.24 in 10.0 mi ESE 6.9 mph - N/A   Clear
4:55 AM 51.1 °F 47.7 °F 88% 30.24 in 10.0 mi ESE 5.8 mph - N/A   Clear
5:15 AM 50.9 °F 47.8 °F 89% 30.24 in 10.0 mi ESE 5.8 mph - N/A   Clear
5:35 AM 50.9 °F 47.7 °F 89% 30.23 in 10.0 mi ESE 5.8 mph - N/A   Clear
5:55 AM 50.9 °F 47.8 °F 89% 30.23 in 10.0 mi ESE 6.9 mph - N/A   Clear
6:15 AM 51.1 °F 48.0 °F 89% 30.23 in 10.0 mi ESE 6.9 mph - N/A   Clear
6:35 AM 51.3 °F 48.2 °F 89% 30.23 in 10.0 mi ESE 6.9 mph - N/A   Mostly Cloudy
6:55 AM 51.8 °F 48.2 °F 88% 30.24 in 10.0 mi ESE 5.8 mph - N/A   Overcast
7:15 AM 51.8 °F 48.2 °F 88% 30.24 in 10.0 mi ESE 6.9 mph - N/A   Overcast
7:35 AM 52.0 °F 48.2 °F 87% 30.24 in 10.0 mi ESE 6.9 mph - N/A   Overcast
7:55 AM 52.3 °F 48.4 °F 86% 30.24 in 10.0 mi ESE 6.9 mph - N/A   Overcast
8:15 AM 52.7 °F 48.7 °F 86% 30.23 in 10.0 mi ESE 9.2 mph - N/A Rain Light Rain
8:35 AM 52.3 °F 49.3 °F 89% 30.22 in 7.0 mi ESE 6.9 mph - 0.01 in Rain Light Rain
8:55 AM 52.7 °F 50.0 °F 91% 30.22 in 7.0 mi SE 6.9 mph - 0.01 in   Light Drizzle
9:15 AM 53.1 °F 50.4 °F 91% 30.23 in 7.0 mi SE 6.9 mph - N/A   Overcast
9:35 AM 53.8 °F 50.9 °F 90% 30.22 in 10.0 mi SE 9.2 mph - N/A   Overcast
9:55 AM 55.4 °F 51.4 °F 87% 30.22 in 10.0 mi SE 9.2 mph - N/A   Overcast
10:15 AM 55.2 °F 50.9 °F 85% 30.22 in 10.0 mi SE 8.1 mph - N/A   Overcast
10:35 AM 55.4 °F 51.3 °F 86% 30.22 in 10.0 mi SE 6.9 mph - N/A   Overcast
10:55 AM 55.4 °F 51.3 °F 86% 30.21 in 10.0 mi SE 10.4 mph - N/A   Overcast
11:15 AM 55.9 °F 52.0 °F 87% 30.21 in 10.0 mi SE 8.1 mph - N/A Rain Light Rain
11:35 AM 56.3 °F 52.7 °F 88% 30.20 in 7.0 mi ESE 6.9 mph - N/A Rain Light Rain
11:55 AM 56.8 °F 53.1 °F 87% 30.19 in 7.0 mi ESE 6.9 mph - N/A   Overcast
12:15 PM 57.6 °F 53.2 °F 85% 30.18 in 10.0 mi SE 8.1 mph - N/A   Overcast
12:35 PM 58.1 °F 53.6 °F 85% 30.18 in 10.0 mi SE 8.1 mph - N/A   Overcast
12:55 PM 58.3 °F 53.8 °F 85% 30.17 in 7.0 mi SE 6.9 mph - N/A Rain Light Rain
1:15 PM 59.4 °F 54.1 °F 83% 30.16 in 10.0 mi SE 9.2 mph - N/A   Overcast
1:35 PM 60.3 °F 54.5 °F 81% 30.14 in 10.0 mi SE 9.2 mph - N/A   Overcast
1:55 PM 61.5 °F 54.9 °F 79% 30.13 in 10.0 mi SE 11.5 mph - N/A   Overcast
2:15 PM 61.7 °F 55.4 °F 80% 30.12 in 10.0 mi SE 9.2 mph - N/A   Overcast
2:35 PM 62.1 °F 55.4 °F 79% 30.12 in 10.0 mi SE 10.4 mph - N/A   Overcast
2:55 PM 62.6 °F 55.8 °F 78% 30.11 in 10.0 mi SE 9.2 mph - N/A   Overcast
3:15 PM 62.6 °F 56.3 °F 80% 30.10 in 10.0 mi SE 8.1 mph - N/A   Overcast
3:35 PM 62.6 °F 55.9 °F 79% 30.10 in 10.0 mi SE 10.4 mph 16.1 mph N/A   Overcast
3:55 PM 62.6 °F 56.5 °F 80% 30.10 in 10.0 mi SSE 6.9 mph - N/A   Overcast
4:15 PM 61.3 °F 57.4 °F 87% 30.09 in 4.0 mi SSE 11.5 mph - N/A Rain Light Rain
4:35 PM 61.0 °F 57.6 °F 88% 30.08 in 3.0 mi SSE 8.1 mph - N/A Rain Light Rain
4:55 PM 61.2 °F 57.9 °F 89% 30.08 in 7.0 mi SSE 8.1 mph - N/A   Overcast
5:15 PM 61.7 °F 58.1 °F 88% 30.08 in 10.0 mi SE 8.1 mph - N/A   Overcast
5:35 PM 61.7 °F 58.3 °F 89% 30.07 in 7.0 mi SE 6.9 mph - N/A   Overcast
5:55 PM 62.2 °F 58.3 °F 87% 30.06 in 7.0 mi SSE 8.1 mph - N/A   Overcast
6:15 PM 62.6 °F 58.6 °F 87% 30.06 in 7.0 mi SE 9.2 mph - N/A   Overcast
6:35 PM 62.6 °F 58.6 °F 87% 30.05 in 7.0 mi SE 9.2 mph - N/A   Overcast
6:55 PM 62.6 °F 59.0 °F 88% 30.05 in 7.0 mi SSE 6.9 mph - N/A   Overcast
7:15 PM 62.6 °F 59.0 °F 88% 30.05 in 7.0 mi SE 9.2 mph - N/A   Overcast
7:35 PM 62.6 °F 59.0 °F 88% 30.04 in 7.0 mi SE 8.1 mph - N/A   Overcast
7:55 PM 62.6 °F 59.0 °F 88% 30.04 in 7.0 mi SSE 10.4 mph - N/A   Overcast
8:15 PM 62.6 °F 59.0 °F 88% 30.04 in 7.0 mi SSE 9.2 mph - N/A   Overcast
8:35 PM 62.6 °F 59.0 °F 88% 30.04 in 7.0 mi SSE 10.4 mph - N/A   Overcast
8:55 PM 62.6 °F 59.2 °F 89% 30.04 in 5.0 mi SSE 10.4 mph 16.1 mph N/A   Overcast
9:15 PM 62.6 °F 59.4 °F 89% 30.04 in 5.0 mi SSE 9.2 mph - N/A   Overcast
9:35 PM 62.6 °F 59.4 °F 89% 30.05 in 5.0 mi SSE 8.1 mph - N/A   Overcast
9:55 PM 62.6 °F 59.5 °F 90% 30.05 in 5.0 mi South 10.4 mph 16.1 mph N/A   Overcast
10:15 PM 62.4 °F 59.5 °F 90% 30.05 in 5.0 mi SSE 11.5 mph - N/A   Overcast
10:35 PM 62.6 °F 59.9 °F 91% 30.06 in 5.0 mi SSE 10.4 mph 16.1 mph N/A   Overcast
10:55 PM 62.4 °F 59.9 °F 91% 30.05 in 4.0 mi SSE 9.2 mph - N/A   Overcast
11:15 PM 62.2 °F 59.9 °F 92% 30.05 in 3.0 mi SSE 6.9 mph - N/A   Overcast
11:35 PM 62.2 °F 60.1 °F 93% 30.05 in 3.0 mi South 10.4 mph - N/A   Overcast
11:55 PM 62.2 °F 60.1 °F 93% 30.05 in 2.5 mi South 9.2 mph - N/A   Overcast